Landels-Hill Big Creek Reserve Entrance, California Weather observations

Data are for 10 minute period ending at time listed.
 Day   Time   Solar   Ave.   Ave.  Ave.  Vector  Max.   Baro.   Total    
  of    of     Rad.   Air    Rel.  Wind   Wind   Wind  Press.  Precip.   
Year   Day            Temp.  Hum.  Speed  Dir.   Gust                    
2015   (PST)  Kw/m2    F      %     mph   deg.    mph    mb.     in.     
-------------------------------------------------------------------------
 211    5:50   0.01   58.2    92    0.6    64     2.0   1013.3    0.00 
 211    6:00   0.01   58.2    92    0.9   352     2.6   1013.5    0.00 
 211    6:10   0.03   58.3    92    0.6     4     3.1   1013.6    0.00 
 211    6:20   0.03   58.3    92    1.3   355     3.2   1013.7    0.00 
 211    6:30   0.04   58.4    92    1.0   358     4.1   1013.7    0.00 
 211    6:40   0.06   58.7    92    0.8   345     3.0   1013.7    0.00 
 211    6:50   0.07   59.0    92    0.9   350     3.7   1013.6    0.00 
 211    7:00   0.09   59.3    92    0.5    31     2.2   1013.6    0.00 
 211    7:10   0.10   59.8    92    0.2   340     2.0   1013.6    0.00 
 211    7:20   0.10   60.3    91    0.3   263     1.1   1013.5    0.00 
 211    7:30   0.11   61.0    90    0.6   174     3.8   1013.4    0.00 
 211    7:40   0.11   60.8    88    2.7   166     5.2   1013.5    0.00 
 211    7:50   0.10   60.2    90    2.1    98     4.8   1013.6    0.00 
 211    8:00   0.13   60.3    91    1.7   175     4.2   1013.6    0.00 
 211    8:10   0.16   60.6    90    3.3   160     6.6   1013.5    0.00 
 211    8:20   0.14   60.5    89    3.9   161     9.3   1013.5    0.00 
 211    8:30   0.17   60.4    90    3.1   152     8.0   1013.6    0.00 
 211    8:40   0.20   60.6    90    2.7   140     5.7   1013.7    0.00 
 211    8:50   0.23   61.0    89    1.8   159     4.3   1013.7    0.00 
 211    9:00   0.25   61.6    87    2.2   188     4.8   1013.9    0.00 
 211    9:10   0.25   62.0    85    2.0   178     4.7   1014.0    0.00 
 211    9:20   0.29   62.4    84    1.7   202     4.4   1014.0    0.00 
 211    9:30   0.30   62.6    83    2.9   163     6.9   1014.0    0.00 
 211    9:40   0.28   61.7    86    4.2   157     8.8   1013.9    0.00 
 211    9:50   0.27   61.5    86    4.3   153     9.4   1014.0    0.00 
 211   10:00   0.60   62.0    86    3.7   170     9.0   1014.0    0.00 
 211   10:10   0.63   63.6    82    3.4   189     8.8   1014.1    0.00 
 211   10:20   0.47   63.4    81    3.0   123     6.4   1014.3    0.00 
 211   10:30   0.47   62.3    84    2.9    78     6.9   1014.3    0.00 
 211   10:40   0.35   62.2    84    2.8    89     7.5   1014.3    0.00 
 211   10:50   0.58   62.1    85    4.2    93     8.0   1014.1    0.00 
 211   11:00   0.67   62.3    84    4.6    87    10.1   1014.0    0.00 
 211   11:10   0.73   62.8    84    3.6   100     8.1   1014.1    0.00 
 211   11:20   0.58   63.1    83    3.4   100     6.7   1014.3    0.00 
 211   11:30   0.64   63.5    82    2.9    84     5.7   1014.4    0.00 
 211   11:40   0.79   63.6    81    2.7    67     5.6   1014.4    0.00 
 211   11:50   0.95   63.9    81    3.9    85     9.0   1014.3    0.00 
 211   12:00   0.90   63.5    81    5.3   116    10.6   1014.3    0.00 
 211   12:10   0.90   63.6    82    5.8   143    12.2   1014.1    0.00 
 211   12:20   0.73   63.3    82    8.3   160    15.7   1013.8    0.00 
 211   12:30   0.49   63.4    81    7.9   168    15.9   1013.4    0.00 
 211   12:40   0.25   63.4    81    7.8   170    12.9   1013.1    0.00 
 211   12:50   0.58   63.8    80    5.0   181    10.7   1013.0    0.00 
 211   13:00   0.89   65.6    76    4.0   183     8.3   1013.1    0.00 
 211   13:10   0.88   65.5    77    4.2   179     9.9   1013.2    0.00 
 211   13:20   0.88   66.1    75    4.2   186     8.8   1013.1    0.00 
 211   13:30   0.87   64.9    78    6.1   166    10.6   1013.0    0.00 
 211   13:40   0.86   64.0    80    5.9   165    10.7   1012.8    0.00 
 211   13:50   0.85   63.9    81    6.1   168    11.8   1012.8    0.00 
 211   14:00   0.84   63.9    81    6.7   166    15.7   1012.8    0.00 
 211   14:10   0.82   64.8    78    4.4   175    10.0   1012.9    0.00 
 211   14:20   0.81   66.0    76    3.6   185     8.4   1013.1    0.00 
 211   14:30   0.80   66.4    74    3.7   176     6.8   1013.2    0.00 
 211   14:40   0.78   64.8    78    5.0   140     9.7   1013.3    0.00 
 211   14:50   0.75   64.1    80    5.4   150    10.2   1013.3    0.00 
 211   15:00   0.73   64.2    80    6.1   164    11.0   1013.2    0.00 
 211   15:10   0.71   64.0    80    5.8   158    13.2   1013.2    0.00 
 211   15:20   0.68   64.4    80    4.9   153    12.6   1013.3    0.00 
 211   15:30   0.65   64.0    80    5.8   145    10.9   1013.3    0.00 
 211   15:40   0.62   64.5    80    6.5   156    12.3   1013.2    0.00 
 211   15:50   0.60   64.5    80    6.3   159    11.1   1013.2    0.00 
 211   16:00   0.57   64.5    80    7.3   159    12.9   1013.1    0.00 
 211   16:10   0.54   64.5    81    5.1   161    10.6   1013.2    0.00 
 211   16:20   0.50   64.8    80    4.8   168     9.0   1013.1    0.00 
 211   16:30   0.47   64.8    80    5.4   169     9.6   1013.1    0.00 
 211   16:40   0.41   64.7    80    6.0   161    12.1   1013.0    0.00 
 211   16:50   0.41   64.9    80    5.1   177    10.9   1013.0    0.00 
 211   17:00   0.38   65.1    80    4.1   177     9.9   1013.0    0.00 
 211   17:10   0.34   65.7    78    3.8   180     8.1   1013.0    0.00 
 211   17:20   0.30   66.5    76    4.4   174    11.5   1012.9    0.00 
 211   17:30   0.23   64.9    80    4.8   171     8.6   1012.9    0.00 
 211   17:40   0.07   64.8    80    2.1   161     7.5   1012.5    0.00 
 211   17:50   0.07   64.8    80    2.6   177     8.8   1012.2    0.00 
 211   18:00   0.08   64.8    81    1.8   155     5.3   1011.9    0.00 
 211   18:10   0.09   64.9    80    1.9    80     6.4   1011.7    0.00 
 211   18:20   0.09   64.8    80    3.7   174     8.5   1011.7    0.00 
 211   18:30   0.06   64.6    81    3.6   171     7.4   1011.7    0.00 
 211   18:40   0.04   64.6    80    1.9   169     7.3   1011.8    0.00 
 211   18:50   0.03   64.3    81    1.8    34     7.1   1011.8    0.00 
 211   19:00   0.01   64.1    82    1.3   168     5.1   1011.9    0.00 
 211   19:10   0.01   64.0    82    1.5   239     4.5   1011.8    0.00 
 211   19:20   0.01   63.9    82    0.6   220     3.0   1011.8    0.00 
 211   19:30   0.00   63.8    82    1.0   258     4.1   1011.9    0.00 
 211   19:40   0.00   63.8    82    0.7   272     3.8   1012.1    0.00 
 211   19:50   0.00   63.7    83    0.6   212     2.3   1012.2    0.00 
 211   20:00   0.00   63.8    83    1.0   231     5.6   1012.2    0.00 
 211   20:10   0.00   63.7    84    0.8   206     3.2   1012.3    0.00 
 211   20:20   0.00   63.5    84    0.5   193     3.1   1012.4    0.00 
 211   20:30   0.00   63.2    85    1.1   174     4.4   1012.5    0.00 
 211   20:40   0.00   62.9    86    0.2   193     2.3   1012.6    0.00 
 211   20:50   0.00   62.4    86    0.7   312     2.8   1012.7    0.00 
 211   21:00   0.00   62.2    87    0.1   344     0.9   1012.8    0.00 
 211   21:10   0.00   61.9    86    0.4   344     1.3   1012.8    0.00 
 211   21:20   0.00   61.9    87    0.3   350     1.4   1012.8    0.00 
 211   21:30   0.00   61.9    87    0.5   350     1.8   1012.7    0.00 
 211   21:40   0.00   62.0    87    0.1   134     1.1   1012.6    0.00 
 211   21:50   0.00   62.4    87    0.3    95     2.8   1012.5    0.00 
 211   22:00   0.00   62.5    87    0.1   331     1.2   1012.5    0.00 
 211   22:10   0.00   62.2    87    0.3     8     1.3   1012.5    0.00 
 211   22:20   0.00   61.8    87    0.1   106     1.5   1012.5    0.00 
 211   22:30   0.00   61.7    87    0.0   338     0.7   1012.5    0.00 
 211   22:40   0.00   61.4    87    0.7     9     3.1   1012.5    0.00 
 211   22:50   0.00   61.0    88    0.9    44     2.6   1012.3    0.00 
 211   23:00   0.00   61.0    88    0.6    13     2.2   1012.2    0.00 
 211   23:10   0.00   60.8    88    0.2   357     1.6   1012.3    0.00 
 211   23:20   0.00   61.1    89    0.0     8     0.4   1012.3    0.00 
 211   23:30   0.00   61.3    89    0.5    46     1.8   1012.5    0.00 
 211   23:40   0.00   61.2    89    1.0     2     3.2   1012.5    0.00 
 211   23:50   0.00   60.9    89    1.0    46     2.4   1012.5    0.00 
 212    0:00   0.00   60.8    89    0.5    59     2.3   1012.5    0.00 
 212    0:10   0.00   60.7    89    0.5    35     2.3   1012.6    0.00 
 212    0:20   0.00   60.4    89    0.9    28     2.3   1012.7    0.00 
 212    0:30   0.00   60.2    89    0.4    11     1.5   1012.7    0.00 
 212    0:40   0.00   59.9    90    1.0    13     1.8   1012.8    0.00 
 212    0:50   0.00   59.9    90    0.2   353     1.8   1012.8    0.00 
 212    1:00   0.00   60.2    90    0.4     6     1.5   1012.8    0.00 
 212    1:10   0.00   60.6    91    0.5   348     3.9   1012.8    0.00 
 212    1:20   0.00   60.8    90    0.1     2     1.1   1012.9    0.00 
 212    1:30   0.00   60.6    90    0.3     5     2.0   1012.7    0.00 
 212    1:40   0.00   60.7    90    0.7    14     1.5   1012.7    0.00 
 212    1:50   0.00   60.8    89    0.2   360     1.2   1012.7    0.00 
 212    2:00   0.00   61.2    89    0.0   346     0.6   1012.7    0.00 
 212    2:10   0.00   61.5    89    0.0   343     0.3   1012.8    0.00 
 212    2:20   0.00   61.5    89    0.0   342     0.4   1012.9    0.00 
 212    2:30   0.00   61.4    89    0.0     0     0.0   1012.9    0.00 
 212    2:40   0.00   61.7    89    0.0     0     0.0   1012.9    0.00 
 212    2:50   0.00   61.9    90    0.1   305     0.9   1012.9    0.00 
 212    3:00   0.00   61.8    90    0.2   258     1.1   1013.0    0.00 
 212    3:10   0.00   61.7    90    0.0     0     0.0   1013.0    0.00 
 212    3:20   0.00   61.7    90    0.0   288     0.7   1012.9    0.00 
 212    3:30   0.00   61.7    90    0.0   288     0.7   1012.8    0.00 
 212    3:40   0.00   61.8    91    0.0   277     0.4   1012.8    0.00 
 212    3:50   0.00   61.7    91    0.0     0     0.0   1012.8    0.00 
 212    4:00   0.00   61.8    91    0.0     0     0.0   1012.8    0.00 
 212    4:10   0.00   61.8    91    0.0     0     0.0   1012.8    0.00 
 212    4:20   0.00   61.8    91    0.0     0     0.0   1012.9    0.00 
 212    4:30   0.00   61.7    91    0.1   301     0.8   1013.1    0.00 
 212    4:40   0.00   61.7    92    0.2   264     0.9   1013.0    0.00 
 212    4:50   0.00   61.6    92    0.0     0     0.0   1012.9    0.00 
 212    5:00   0.00   61.6    92    0.0     0     0.0   1012.8    0.00 
 212    5:10   0.00   61.5    92    0.1   161     1.2   1012.9    0.00 
 212    5:20   0.00   61.5    93    0.0   257     0.7   1013.0    0.00 
 212    5:30   0.01   61.4    93    0.2   237     1.2   1013.1    0.00 
 212    5:40   0.01   61.3    93    0.1   269     0.7   1013.1    0.00 

Return to Big Creek Reserve Entrance graphs page.


Western Regional Climate Center,wrcc@dri.edu